createdAt,value
2019-05-21T00:00:49.282Z,9.10
2019-05-21T00:15:49.190Z,10.38
2019-05-21T00:45:49.519Z,10.25
2019-05-21T01:00:54.956Z,9.95
2019-05-21T01:15:49.850Z,9.68
2019-05-21T01:30:51.830Z,10.38
2019-05-21T01:45:50.171Z,10.30
2019-05-21T02:00:49.822Z,10.93
2019-05-21T02:15:50.191Z,10.35
2019-05-21T02:30:50.056Z,12.23
2019-05-21T02:45:52.017Z,11.18
2019-05-21T03:00:57.690Z,11.53
2019-05-21T03:15:51.848Z,11.43
2019-05-21T03:30:49.332Z,10.30
2019-05-21T03:45:51.322Z,10.50
2019-05-21T04:00:49.265Z,10.38
2019-05-21T04:30:55.044Z,8.28
2019-05-21T04:45:52.312Z,7.92
2019-05-21T05:00:50.922Z,7.70
2019-05-21T05:15:52.633Z,7.65
2019-05-21T05:30:49.840Z,6.80
2019-05-21T05:45:51.307Z,6.40
2019-05-21T06:00:49.183Z,7.08
2019-05-21T06:15:49.085Z,7.65
2019-05-21T06:30:52.109Z,7.30
2019-05-21T06:45:50.140Z,6.75
2019-05-21T07:00:51.592Z,4.78
2019-05-21T07:15:49.299Z,3.67
2019-05-21T07:30:49.307Z,3.52
2019-05-21T07:45:55.296Z,2.75
2019-05-21T08:00:49.258Z,3.22
2019-05-21T08:15:49.600Z,2.50
2019-05-21T08:45:49.503Z,2.77
2019-05-21T09:00:49.455Z,2.33
2019-05-21T09:15:50.285Z,2.63
2019-05-21T09:30:49.234Z,2.72
2019-05-21T09:45:49.694Z,2.10
2019-05-21T10:15:50.374Z,2.00
2019-05-21T10:30:50.601Z,1.80
2019-05-21T10:45:50.473Z,2.10
2019-05-21T11:00:52.188Z,1.92
2019-05-21T11:15:50.836Z,2.10
2019-05-21T11:30:49.204Z,2.10
2019-05-21T11:45:50.742Z,1.60
2019-05-21T12:00:49.849Z,1.98
2019-05-21T12:15:49.558Z,2.02
2019-05-21T12:30:55.500Z,2.15
2019-05-21T12:45:49.713Z,3.30
2019-05-21T13:00:49.549Z,2.80
2019-05-21T13:15:49.770Z,2.50
2019-05-21T13:30:50.351Z,2.12
2019-05-21T13:45:50.103Z,2.62
2019-05-21T14:00:50.796Z,2.50
2019-05-21T14:15:49.945Z,2.98
2019-05-21T14:30:50.442Z,2.02
2019-05-21T14:45:49.953Z,2.55
2019-05-21T15:00:49.378Z,2.80
2019-05-21T15:15:49.579Z,2.20
2019-05-21T15:30:49.366Z,2.50
2019-05-21T15:45:52.288Z,2.20
2019-05-21T16:00:50.073Z,2.25
2019-05-21T16:15:55.427Z,2.15
2019-05-21T16:30:55.374Z,2.80
2019-05-21T16:45:49.893Z,2.75
2019-05-21T17:00:51.083Z,3.90
2019-05-21T17:15:49.658Z,3.30
2019-05-21T17:30:49.184Z,2.95
2019-05-21T17:45:49.635Z,5.12
2019-05-21T18:00:50.757Z,4.35
2019-05-21T18:15:51.952Z,5.05
2019-05-21T18:30:51.442Z,4.92
2019-05-21T19:15:58.930Z,6.22
2019-05-21T19:45:57.252Z,5.92
2019-05-21T20:00:51.620Z,6.47
2019-05-21T20:15:57.499Z,8.65
2019-05-21T20:30:50.084Z,7.75
2019-05-21T20:45:55.734Z,7.30
2019-05-21T21:00:55.292Z,6.50
2019-05-21T21:15:49.544Z,4.08
2019-05-21T21:30:50.149Z,5.03
2019-05-21T21:45:49.282Z,4.28
2019-05-21T22:15:58.183Z,5.10
2019-05-21T22:30:54.991Z,5.00
2019-05-21T22:45:56.727Z,4.20
2019-05-21T23:00:54.045Z,4.80
2019-05-21T23:15:50.861Z,3.12
2019-05-21T23:30:49.733Z,3.50
2019-05-21T23:45:52.792Z,3.95
